Stena Atlantica — ZCPR7 — position and weather

sailwx.info

Track history (hours):
 
Tides and Currents Weather Stations Pressure Air Temp Water Temp Dewpoint Dewpoint Depression Visibility Wind Speed Wind Dir Waves Ship Positions

Stena Atlantica

Last reported at 2014-Sep-02 03:17 UTC. Time now 2014-Sep-02 04:22 UTC.
Position N 55°59' E 016°35'.

Length 245 m; draft 8 m.

Type: Tanker. MMSI: 319161000.

Date/timePositionNaut miles runAvg speedWind from/ knotsBaromVisibWave heightAir tempDewpointWater temp
2014-Sep-02 03:17N 55°59' E 016°35'4712.5
2014-Sep-01 23:33N 55°34' E 015°25'1212.2
2014-Sep-01 22:33N 55°27' E 015°07'1212.1
2014-Sep-01 21:33N 55°21' E 014°48'1010.1
2014-Sep-01 20:33N 55°13' E 014°37'1212.5
2014-Sep-01 19:33N 55°06' E 014°19'1212.1
2014-Sep-01 18:33N 55°00' E 014°01'1111.3
2014-Sep-01 17:33N 54°56' E 013°43'1111.4
2014-Sep-01 16:33N 54°52' E 013°24'1111.5
2014-Sep-01 15:33N 54°49' E 013°05'1211.6
2014-Sep-01 14:33N 54°45' E 012°46'1111.4
2014-Sep-01 13:33N 54°39' E 012°29'1211.7
2014-Sep-01 12:33N 54°31' E 012°16'1010.3
2014-Sep-01 11:33N 54°25' E 012°01'1311.5
2014-Sep-01 10:27N 54°27' E 011°40'150 9.4
2014-Aug-31 18:26N 56°57' E 011°45'1111.9
2014-Aug-31 17:33N 57°07' E 011°38'1212.0
2014-Aug-31 16:33N 57°18' E 011°32'1212.0
2014-Aug-31 15:33N 57°30' E 011°37'4 4.0
2014-Aug-31 14:33N 57°34' E 011°40'0 0.1
2014-Aug-31 13:32N 57°34' E 011°40'0 0.0
2014-Aug-31 12:32N 57°34' E 011°40'0 0.0
2014-Aug-31 11:32N 57°34' E 011°40'0 0.0
2014-Aug-31 10:32N 57°34' E 011°40'1 0.8
2014-Aug-31 09:33N 57°34' E 011°39'9 8.9
2014-Aug-31 08:33N 57°37' E 011°23'1211.9
2014-Aug-31 07:33N 57°42' E 011°03'1211.7
2014-Aug-31 06:33N 57°46' E 010°42'9 9.4
2014-Aug-31 05:34N 57°48' E 010°25'1414.2
2014-Aug-31 04:33N 57°47' E 009°59'1312.7
2014-Aug-31 03:33N 57°47' E 009°34'1313.2
2014-Aug-31 02:33N 57°48' E 009°10'1413.5
2014-Aug-31 01:33N 57°47' E 008°45'1313.2
2014-Aug-31 00:33N 57°44' E 008°21'1312.2
2014-Aug-30 23:27N 57°41' E 007°56'38111.5
2014-Aug-29 14:18N 59°22' W 003°49'912.2
2014-Aug-29 13:33N 59°17' W 004°05'1212.2
2014-Aug-29 12:33N 59°12' W 004°26'1312.7
2014-Aug-29 11:33N 59°06' W 004°48'4213.1
2014-Aug-29 08:18N 58°46' W 006°01'2313.0
2014-Aug-29 06:33N 58°35' W 006°39'4212.2
2014-Aug-29 03:05N 58°04' W 007°34'12811.6
2014-Aug-28 16:06N 55°56' W 007°19'814.2
2014-Aug-28 15:34N 55°49' W 007°13'1414.4
2014-Aug-28 14:34N 55°37' W 007°02'1413.7
2014-Aug-28 13:33N 55°31' W 006°39'1313.2
2014-Aug-28 12:33N 55°27' W 006°17'1111.5
2014-Aug-28 11:33N 55°22' W 005°59'1010.1
2014-Aug-28 10:33N 55°13' W 005°49'1110.5
2014-Aug-28 09:33N 55°04' W 005°40'1110.8
2014-Aug-28 08:33N 54°55' W 005°30'1111.2
2014-Aug-28 07:33N 54°45' W 005°20'1211.9
2014-Aug-28 06:34N 54°35' W 005°11'1312.6
2014-Aug-28 05:33N 54°23' W 005°06'1312.8
2014-Aug-28 04:33N 54°10' W 005°02'1413.1
2014-Aug-28 03:30N 53°56' W 004°59'3913.1
2014-Aug-28 00:30N 53°39' W 004°00'1212.4
2014-Aug-27 23:33N 53°34' W 003°42'1211.5
2014-Aug-27 22:32N 53°33' W 003°22'5 5.5
2014-Aug-27 21:33N 53°31' W 003°14'9 9.0
2014-Aug-27 20:32N 53°26' W 003°01'0 0.0
2014-Aug-26 11:07N 53°26' W 003°01'7 7.6
2014-Aug-26 10:12N 53°32' W 003°08'710.5
2014-Aug-26 09:33N 53°32' W 003°20'2 2.2
2014-Aug-26 08:33N 53°32' W 003°23'3 3.2
2014-Aug-26 07:33N 53°31' W 003°28'7 5.7
2014-Aug-26 06:21N 53°31' W 003°40'5 6.3
2014-Aug-26 05:32N 53°31' W 003°49'6 6.3
2014-Aug-26 04:31N 53°31' W 003°59'  
Track history (hours):
 
Tides and Currents Weather Stations Pressure Air Temp Water Temp Dewpoint Dewpoint Depression Visibility Wind Speed Wind Dir Waves Ship Positions

Stena Atlantica

Last reported at 2014-Sep-02 03:17 UTC. Time now 2014-Sep-02 04:22 UTC.
Position N 55°59' E 016°35'.

Length 245 m; draft 8 m.

Type: Tanker. MMSI: 319161000.

Date/timePositionNaut miles runAvg speedWind from/ knotsBaromVisibWave heightAir tempDewpointWater temp
2014-Sep-02 03:17N 55°59' E 016°35'4712.5
2014-Sep-01 23:33N 55°34' E 015°25'1212.2
2014-Sep-01 22:33N 55°27' E 015°07'1212.1
2014-Sep-01 21:33N 55°21' E 014°48'1010.1
2014-Sep-01 20:33N 55°13' E 014°37'1212.5
2014-Sep-01 19:33N 55°06' E 014°19'1212.1
2014-Sep-01 18:33N 55°00' E 014°01'1111.3
2014-Sep-01 17:33N 54°56' E 013°43'1111.4
2014-Sep-01 16:33N 54°52' E 013°24'1111.5
2014-Sep-01 15:33N 54°49' E 013°05'1211.6
2014-Sep-01 14:33N 54°45' E 012°46'1111.4
2014-Sep-01 13:33N 54°39' E 012°29'1211.7
2014-Sep-01 12:33N 54°31' E 012°16'1010.3
2014-Sep-01 11:33N 54°25' E 012°01'1311.5
2014-Sep-01 10:27N 54°27' E 011°40'150 9.4
2014-Aug-31 18:26N 56°57' E 011°45'1111.9
2014-Aug-31 17:33N 57°07' E 011°38'1212.0
2014-Aug-31 16:33N 57°18' E 011°32'1212.0
2014-Aug-31 15:33N 57°30' E 011°37'4 4.0
2014-Aug-31 14:33N 57°34' E 011°40'0 0.1
2014-Aug-31 13:32N 57°34' E 011°40'0 0.0
2014-Aug-31 12:32N 57°34' E 011°40'0 0.0
2014-Aug-31 11:32N 57°34' E 011°40'0 0.0
2014-Aug-31 10:32N 57°34' E 011°40'1 0.8
2014-Aug-31 09:33N 57°34' E 011°39'9 8.9
2014-Aug-31 08:33N 57°37' E 011°23'1211.9
2014-Aug-31 07:33N 57°42' E 011°03'1211.7
2014-Aug-31 06:33N 57°46' E 010°42'9 9.4
2014-Aug-31 05:34N 57°48' E 010°25'1414.2
2014-Aug-31 04:33N 57°47' E 009°59'1312.7
2014-Aug-31 03:33N 57°47' E 009°34'1313.2
2014-Aug-31 02:33N 57°48' E 009°10'1413.5
2014-Aug-31 01:33N 57°47' E 008°45'1313.2
2014-Aug-31 00:33N 57°44' E 008°21'1312.2
2014-Aug-30 23:27N 57°41' E 007°56'38111.5
2014-Aug-29 14:18N 59°22' W 003°49'912.2
2014-Aug-29 13:33N 59°17' W 004°05'1212.2
2014-Aug-29 12:33N 59°12' W 004°26'1312.7
2014-Aug-29 11:33N 59°06' W 004°48'4213.1
2014-Aug-29 08:18N 58°46' W 006°01'2313.0
2014-Aug-29 06:33N 58°35' W 006°39'4212.2
2014-Aug-29 03:05N 58°04' W 007°34'12811.6
2014-Aug-28 16:06N 55°56' W 007°19'814.2
2014-Aug-28 15:34N 55°49' W 007°13'1414.4
2014-Aug-28 14:34N 55°37' W 007°02'1413.7
2014-Aug-28 13:33N 55°31' W 006°39'1313.2
2014-Aug-28 12:33N 55°27' W 006°17'1111.5
2014-Aug-28 11:33N 55°22' W 005°59'1010.1
2014-Aug-28 10:33N 55°13' W 005°49'1110.5
2014-Aug-28 09:33N 55°04' W 005°40'1110.8
2014-Aug-28 08:33N 54°55' W 005°30'1111.2
2014-Aug-28 07:33N 54°45' W 005°20'1211.9
2014-Aug-28 06:34N 54°35' W 005°11'1312.6
2014-Aug-28 05:33N 54°23' W 005°06'1312.8
2014-Aug-28 04:33N 54°10' W 005°02'1413.1
2014-Aug-28 03:30N 53°56' W 004°59'3913.1
2014-Aug-28 00:30N 53°39' W 004°00'1212.4
2014-Aug-27 23:33N 53°34' W 003°42'1211.5
2014-Aug-27 22:32N 53°33' W 003°22'5 5.5
2014-Aug-27 21:33N 53°31' W 003°14'9 9.0
2014-Aug-27 20:32N 53°26' W 003°01'0 0.0
2014-Aug-26 11:07N 53°26' W 003°01'7 7.6
2014-Aug-26 10:12N 53°32' W 003°08'710.5
2014-Aug-26 09:33N 53°32' W 003°20'2 2.2
2014-Aug-26 08:33N 53°32' W 003°23'3 3.2
2014-Aug-26 07:33N 53°31' W 003°28'7 5.7
2014-Aug-26 06:21N 53°31' W 003°40'5 6.3
2014-Aug-26 05:32N 53°31' W 003°49'6 6.3
2014-Aug-26 04:31N 53°31' W 003°59'  

Dump ship's entire track history